createdAt,value
2022-09-25T00:07:52.869Z,11.37
2022-09-25T00:19:48.543Z,11.33
2022-09-25T00:25:56.032Z,10.07
2022-09-25T00:31:43.205Z,9.47
2022-09-25T00:37:41.991Z,10.73
2022-09-25T01:01:18.064Z,9.30
2022-09-25T01:13:27.703Z,10.10
2022-09-25T01:30:44.139Z,9.83
2022-09-25T01:42:23.331Z,11.27
2022-09-25T01:47:51.889Z,9.57
2022-09-25T01:53:23.428Z,9.33
2022-09-25T01:59:36.043Z,10.20
2022-09-25T02:11:07.033Z,10.53
2022-09-25T02:16:33.855Z,11.13
2022-09-25T02:28:53.957Z,11.20
2022-09-25T02:40:05.869Z,10.77
2022-09-25T02:45:57.684Z,10.97
2022-09-25T02:57:01.422Z,12.67
2022-09-25T03:07:57.405Z,13.80
2022-09-25T03:13:03.380Z,15.63
2022-09-25T03:29:29.549Z,13.37
2022-09-25T03:35:29.536Z,11.30
2022-09-25T03:40:51.205Z,12.20
2022-09-25T03:46:35.970Z,13.07
2022-09-25T03:52:17.795Z,12.37
2022-09-25T03:58:10.817Z,11.57
2022-09-25T04:05:38.328Z,13.13
2022-09-25T04:09:56.617Z,14.10
2022-09-25T04:21:35.826Z,13.83
2022-09-25T04:27:05.722Z,16.30
2022-09-25T04:33:25.329Z,17.13
2022-09-25T04:45:18.584Z,14.13
2022-09-25T05:01:26.318Z,13.67
2022-09-25T05:06:37.955Z,13.87
2022-09-25T05:11:22.600Z,13.03
2022-09-25T05:16:43.732Z,13.10
2022-09-25T05:22:24.349Z,11.80
2022-09-25T05:27:09.520Z,11.27
2022-09-25T05:37:22.426Z,10.50
2022-09-25T05:42:45.691Z,11.00
2022-09-25T05:48:11.964Z,12.37
2022-09-25T05:54:11.405Z,10.03
2022-09-25T06:05:25.485Z,11.07
2022-09-25T06:12:01.934Z,9.90
2022-09-25T06:17:09.848Z,9.93
2022-09-25T06:23:06.079Z,9.40
2022-09-25T06:45:54.121Z,10.23
2022-09-25T06:51:30.244Z,10.67
2022-09-25T06:57:02.464Z,11.07
2022-09-25T07:08:28.644Z,11.60
2022-09-25T07:14:19.419Z,12.70
2022-09-25T07:20:06.494Z,11.33
2022-09-25T07:25:20.731Z,10.40
2022-09-25T07:30:40.317Z,9.27
2022-09-25T07:36:14.043Z,8.80
2022-09-25T07:41:39.228Z,8.70
2022-09-25T07:47:09.436Z,9.83
2022-09-25T07:53:16.819Z,9.30
2022-09-25T07:58:58.984Z,10.13
2022-09-25T08:04:37.062Z,9.90
2022-09-25T08:10:14.131Z,8.40
2022-09-25T08:21:08.690Z,7.30
2022-09-25T08:26:11.520Z,8.43
2022-09-25T08:31:55.194Z,7.43
2022-09-25T08:37:17.096Z,8.20
2022-09-25T08:42:41.798Z,6.90
2022-09-25T08:48:12.481Z,6.95
2022-09-25T08:54:16.000Z,6.82
2022-09-25T09:00:02.925Z,7.05
2022-09-25T09:05:38.549Z,5.63
2022-09-25T09:27:40.115Z,9.60
2022-09-25T09:32:36.281Z,10.18
2022-09-25T09:37:25.617Z,10.18
2022-09-25T09:42:15.697Z,9.37
2022-09-25T09:47:09.260Z,8.05
2022-09-25T09:51:56.899Z,7.63
2022-09-25T09:56:43.802Z,7.35
2022-09-25T10:01:46.097Z,8.45
2022-09-25T10:06:34.815Z,8.68
2022-09-25T10:11:20.116Z,8.95
2022-09-25T10:16:11.573Z,8.40
2022-09-25T10:21:00.693Z,8.38
2022-09-25T10:25:45.511Z,8.70
2022-09-25T10:30:29.218Z,7.10
2022-09-25T10:35:17.415Z,6.93
2022-09-25T10:40:04.088Z,6.07
2022-09-25T10:44:54.150Z,6.40
2022-09-25T10:50:06.143Z,5.60
2022-09-25T10:54:52.565Z,6.00
2022-09-25T10:59:36.174Z,5.38
2022-09-25T11:04:24.873Z,5.13
2022-09-25T11:09:17.758Z,5.15
2022-09-25T11:14:04.713Z,5.57
2022-09-25T11:18:51.487Z,5.88
2022-09-25T11:23:41.553Z,5.40
2022-09-25T11:28:31.730Z,5.75
2022-09-25T11:33:23.337Z,5.55
2022-09-25T11:38:40.843Z,5.80
2022-09-25T11:43:36.578Z,6.03
2022-09-25T11:48:26.174Z,5.90
2022-09-25T11:53:20.752Z,5.60
2022-09-25T11:58:21.523Z,5.60
2022-09-25T12:03:27.128Z,6.03
2022-09-25T12:08:27.323Z,6.20
2022-09-25T12:13:19.118Z,5.40
2022-09-25T12:18:11.078Z,6.55
2022-09-25T12:23:04.682Z,5.87
2022-09-25T12:27:55.017Z,6.10
2022-09-25T12:32:53.349Z,4.90
2022-09-25T12:37:43.677Z,4.20
2022-09-25T12:42:38.204Z,4.37
2022-09-25T12:47:27.832Z,4.60
2022-09-25T12:52:14.237Z,4.53
2022-09-25T12:57:00.044Z,4.47
2022-09-25T13:01:55.050Z,4.30
2022-09-25T13:06:48.473Z,3.80
2022-09-25T13:11:39.539Z,4.15
2022-09-25T13:16:23.799Z,4.20
2022-09-25T13:21:27.671Z,4.65
2022-09-25T13:26:14.381Z,5.97
2022-09-25T13:31:10.268Z,5.60
2022-09-25T13:36:11.238Z,5.60
2022-09-25T13:40:56.379Z,6.13
2022-09-25T13:45:41.614Z,5.63
2022-09-25T13:50:43.916Z,5.97
2022-09-25T13:55:27.545Z,7.27
2022-09-25T14:00:18.640Z,8.03
2022-09-25T14:05:02.137Z,6.97
2022-09-25T14:09:48.547Z,7.67
2022-09-25T14:14:36.006Z,7.80
2022-09-25T14:19:25.832Z,7.73
2022-09-25T14:24:21.515Z,7.67
2022-09-25T14:29:05.080Z,8.20
2022-09-25T14:34:08.122Z,8.17
2022-09-25T14:39:08.154Z,9.57
2022-09-25T14:44:04.643Z,8.83
2022-09-25T14:48:51.429Z,7.27
2022-09-25T14:53:38.456Z,7.97
2022-09-25T14:58:27.320Z,8.00
2022-09-25T15:03:14.973Z,8.30
2022-09-25T15:08:00.149Z,8.50
2022-09-25T15:12:46.688Z,8.57
2022-09-25T15:17:33.209Z,8.33
2022-09-25T15:22:20.857Z,8.23
2022-09-25T15:27:07.712Z,8.40
2022-09-25T15:31:52.849Z,9.50
2022-09-25T15:36:37.710Z,11.60
2022-09-25T15:41:23.123Z,9.63
2022-09-25T15:46:32.401Z,8.13
2022-09-25T15:51:20.588Z,6.43
2022-09-25T15:56:14.245Z,6.87
2022-09-25T16:01:17.957Z,6.90
2022-09-25T16:06:03.647Z,6.27
2022-09-25T16:10:50.245Z,6.00
2022-09-25T16:15:52.307Z,5.50
2022-09-25T16:20:37.919Z,5.00
2022-09-25T16:25:26.052Z,5.27
2022-09-25T16:30:18.221Z,5.10
2022-09-25T16:35:04.110Z,5.87
2022-09-25T16:39:47.600Z,5.17
2022-09-25T16:44:47.304Z,4.73
2022-09-25T16:49:33.939Z,4.67
2022-09-25T16:54:21.534Z,5.00
2022-09-25T16:59:12.030Z,4.17
2022-09-25T17:04:00.134Z,3.97
2022-09-25T17:08:43.627Z,4.53
2022-09-25T17:13:30.969Z,4.03
2022-09-25T17:18:21.253Z,3.40
2022-09-25T17:23:05.000Z,4.40
2022-09-25T17:27:48.562Z,5.00
2022-09-25T17:32:34.293Z,5.73
2022-09-25T17:37:17.784Z,6.63
2022-09-25T17:42:02.687Z,5.73
2022-09-25T17:46:46.413Z,5.67
2022-09-25T17:51:31.955Z,8.20
2022-09-25T17:56:15.317Z,6.47
2022-09-25T18:01:01.130Z,6.33
2022-09-25T18:05:46.052Z,5.37
2022-09-25T18:10:31.205Z,5.60
2022-09-25T18:15:15.259Z,4.20
2022-09-25T18:20:16.158Z,4.60
2022-09-25T18:24:59.752Z,3.90
2022-09-25T18:29:46.030Z,2.83
2022-09-25T18:34:30.302Z,2.50
2022-09-25T18:39:19.665Z,3.13
2022-09-25T18:44:07.291Z,2.30
2022-09-25T18:48:54.046Z,3.83
2022-09-25T18:53:37.646Z,5.50
2022-09-25T18:58:21.325Z,5.13
2022-09-25T19:03:05.610Z,5.37
2022-09-25T19:07:52.058Z,4.73
2022-09-25T19:12:36.273Z,3.70
2022-09-25T19:17:20.874Z,4.20
2022-09-25T19:22:04.935Z,4.60
2022-09-25T19:26:50.668Z,3.03
2022-09-25T19:31:34.481Z,3.43
2022-09-25T19:36:20.583Z,3.40
2022-09-25T19:41:05.492Z,4.10
2022-09-25T19:45:54.842Z,4.10
2022-09-25T19:50:42.090Z,4.03
2022-09-25T19:55:25.602Z,4.00
2022-09-25T20:00:10.630Z,4.30
2022-09-25T20:04:55.585Z,4.30
2022-09-25T20:09:40.139Z,4.40
2022-09-25T20:14:26.509Z,5.53
2022-09-25T20:19:11.794Z,4.97
2022-09-25T20:23:58.301Z,5.27
2022-09-25T20:28:42.802Z,5.43
2022-09-25T20:33:27.489Z,5.47
2022-09-25T20:38:13.437Z,5.60
2022-09-25T20:42:58.344Z,5.00
2022-09-25T20:47:46.010Z,5.23
2022-09-25T20:52:32.453Z,5.70
2022-09-25T20:57:15.957Z,4.90
2022-09-25T21:02:02.509Z,4.10
2022-09-25T21:06:46.455Z,5.10
2022-09-25T21:11:31.963Z,5.73
2022-09-25T21:16:16.726Z,3.60
2022-09-25T21:21:03.129Z,3.30
2022-09-25T21:25:47.110Z,2.27
2022-09-25T21:30:32.382Z,2.10
2022-09-25T21:35:16.650Z,3.80
2022-09-25T21:40:02.151Z,1.53
2022-09-25T21:44:46.253Z,1.50
2022-09-25T21:49:29.812Z,1.33
2022-09-25T21:54:14.427Z,2.10
2022-09-25T21:59:07.366Z,2.20
2022-09-25T22:03:55.479Z,2.60
2022-09-25T22:08:42.412Z,3.87
2022-09-25T22:13:26.691Z,3.60
2022-09-25T22:18:11.471Z,2.20
2022-09-25T22:22:54.853Z,2.40
2022-09-25T22:27:38.268Z,1.73
2022-09-25T22:32:21.692Z,1.80
2022-09-25T22:37:06.597Z,1.70
2022-09-25T22:41:52.143Z,2.20
2022-09-25T22:46:35.778Z,1.90
2022-09-25T22:51:21.052Z,1.90
2022-09-25T22:56:14.869Z,1.53
2022-09-25T23:00:59.552Z,1.40
2022-09-25T23:05:43.195Z,1.80
2022-09-25T23:10:38.727Z,1.90
2022-09-25T23:15:31.774Z,2.20
2022-09-25T23:20:15.381Z,2.50
2022-09-25T23:24:59.121Z,2.10
2022-09-25T23:29:42.465Z,1.90
2022-09-25T23:34:27.625Z,2.10
2022-09-25T23:39:16.012Z,2.13
2022-09-25T23:44:01.052Z,2.93
2022-09-25T23:48:45.237Z,2.40
2022-09-25T23:53:31.362Z,2.23
2022-09-25T23:58:15.207Z,2.23
